sensor_id;sensor_type;location;lat;lon;timestamp;temperature;humidity
20231;DHT22;10274;49.022;9.338;2023-09-19T00:00:17;17.50;1.00
20231;DHT22;10274;49.022;9.338;2023-09-19T00:02:46;17.40;1.00
20231;DHT22;10274;49.022;9.338;2023-09-19T00:05:13;17.30;1.00
20231;DHT22;10274;49.022;9.338;2023-09-19T00:07:40;17.40;1.00
20231;DHT22;10274;49.022;9.338;2023-09-19T00:10:07;17.40;1.00
20231;DHT22;10274;49.022;9.338;2023-09-19T00:12:35;17.30;1.00
20231;DHT22;10274;49.022;9.338;2023-09-19T00:15:02;17.20;1.00
20231;DHT22;10274;49.022;9.338;2023-09-19T00:17:30;17.20;1.00
20231;DHT22;10274;49.022;9.338;2023-09-19T00:19:57;17.20;1.00
20231;DHT22;10274;49.022;9.338;2023-09-19T00:22:24;17.30;1.00
20231;DHT22;10274;49.022;9.338;2023-09-19T00:24:52;17.10;1.00
20231;DHT22;10274;49.022;9.338;2023-09-19T00:27:20;17.00;1.00
20231;DHT22;10274;49.022;9.338;2023-09-19T00:29:47;17.00;1.00
20231;DHT22;10274;49.022;9.338;2023-09-19T00:32:14;17.20;1.00
20231;DHT22;10274;49.022;9.338;2023-09-19T00:34:42;17.30;1.00
20231;DHT22;10274;49.022;9.338;2023-09-19T00:37:09;17.40;1.00
20231;DHT22;10274;49.022;9.338;2023-09-19T00:39:36;17.40;1.00
20231;DHT22;10274;49.022;9.338;2023-09-19T00:42:04;17.40;1.00
20231;DHT22;10274;49.022;9.338;2023-09-19T00:44:30;17.40;1.00
20231;DHT22;10274;49.022;9.338;2023-09-19T00:47:00;17.50;1.00
20231;DHT22;10274;49.022;9.338;2023-09-19T00:49:27;17.50;1.00
20231;DHT22;10274;49.022;9.338;2023-09-19T00:51:56;17.50;1.00
20231;DHT22;10274;49.022;9.338;2023-09-19T00:54:23;17.50;1.00
20231;DHT22;10274;49.022;9.338;2023-09-19T00:56:51;17.50;1.00
20231;DHT22;10274;49.022;9.338;2023-09-19T00:59:20;17.70;1.00
20231;DHT22;10274;49.022;9.338;2023-09-19T01:01:47;17.70;1.00
20231;DHT22;10274;49.022;9.338;2023-09-19T01:04:18;17.80;1.00
20231;DHT22;10274;49.022;9.338;2023-09-19T01:06:45;17.70;1.00
20231;DHT22;10274;49.022;9.338;2023-09-19T01:09:13;17.80;1.00
20231;DHT22;10274;49.022;9.338;2023-09-19T01:11:43;17.80;1.00
20231;DHT22;10274;49.022;9.338;2023-09-19T01:14:20;17.70;1.00
20231;DHT22;10274;49.022;9.338;2023-09-19T01:16:59;17.70;1.00
20231;DHT22;10274;49.022;9.338;2023-09-19T01:20:03;17.70;1.00
20231;DHT22;10274;49.022;9.338;2023-09-19T01:22:41;17.80;99.90
20231;DHT22;10274;49.022;9.338;2023-09-19T01:28:26;17.80;99.90
20231;DHT22;10274;49.022;9.338;2023-09-19T01:30:58;17.90;99.90
20231;DHT22;10274;49.022;9.338;2023-09-19T01:33:27;17.90;99.90
20231;DHT22;10274;49.022;9.338;2023-09-19T01:35:59;17.80;99.90
20231;DHT22;10274;49.022;9.338;2023-09-19T01:38:26;17.80;99.90
20231;DHT22;10274;49.022;9.338;2023-09-19T01:40:58;17.80;99.90
20231;DHT22;10274;49.022;9.338;2023-09-19T01:43:33;17.80;99.90
20231;DHT22;10274;49.022;9.338;2023-09-19T01:46:09;17.80;99.90
20231;DHT22;10274;49.022;9.338;2023-09-19T01:48:41;17.80;99.90
20231;DHT22;10274;49.022;9.338;2023-09-19T01:51:20;17.80;99.90
20231;DHT22;10274;49.022;9.338;2023-09-19T01:53:53;17.80;99.90
20231;DHT22;10274;49.022;9.338;2023-09-19T01:56:28;17.80;99.90
20231;DHT22;10274;49.022;9.338;2023-09-19T01:59:02;17.80;99.90
20231;DHT22;10274;49.022;9.338;2023-09-19T02:01:32;17.80;99.90
20231;DHT22;10274;49.022;9.338;2023-09-19T02:04:00;18.00;99.90
20231;DHT22;10274;49.022;9.338;2023-09-19T02:06:28;17.90;99.90
20231;DHT22;10274;49.022;9.338;2023-09-19T02:08:55;17.80;99.90
20231;DHT22;10274;49.022;9.338;2023-09-19T02:11:22;17.80;99.90
20231;DHT22;10274;49.022;9.338;2023-09-19T02:13:50;17.70;99.90
20231;DHT22;10274;49.022;9.338;2023-09-19T02:16:19;17.60;99.90
20231;DHT22;10274;49.022;9.338;2023-09-19T02:18:48;17.70;99.90
20231;DHT22;10274;49.022;9.338;2023-09-19T02:21:15;17.80;99.90
20231;DHT22;10274;49.022;9.338;2023-09-19T02:23:42;17.70;99.90
20231;DHT22;10274;49.022;9.338;2023-09-19T02:26:09;17.70;99.90
20231;DHT22;10274;49.022;9.338;2023-09-19T02:28:37;17.60;99.90
20231;DHT22;10274;49.022;9.338;2023-09-19T02:31:03;17.60;99.90
20231;DHT22;10274;49.022;9.338;2023-09-19T02:33:31;17.70;99.90
20231;DHT22;10274;49.022;9.338;2023-09-19T02:36:00;17.60;99.90
20231;DHT22;10274;49.022;9.338;2023-09-19T02:38:29;17.60;99.90
20231;DHT22;10274;49.022;9.338;2023-09-19T02:40:56;17.50;99.90
20231;DHT22;10274;49.022;9.338;2023-09-19T02:43:23;17.40;99.90
20231;DHT22;10274;49.022;9.338;2023-09-19T02:45:50;17.40;99.90
20231;DHT22;10274;49.022;9.338;2023-09-19T02:48:19;17.40;99.90
20231;DHT22;10274;49.022;9.338;2023-09-19T02:50:49;17.30;99.90
20231;DHT22;10274;49.022;9.338;2023-09-19T02:53:17;17.30;99.90
20231;DHT22;10274;49.022;9.338;2023-09-19T02:55:44;17.30;99.90
20231;DHT22;10274;49.022;9.338;2023-09-19T02:58:11;17.30;99.90
20231;DHT22;10274;49.022;9.338;2023-09-19T03:00:40;17.20;99.90
20231;DHT22;10274;49.022;9.338;2023-09-19T03:03:08;17.20;99.90
20231;DHT22;10274;49.022;9.338;2023-09-19T03:05:35;17.30;99.90
20231;DHT22;10274;49.022;9.338;2023-09-19T03:08:04;17.30;99.90
20231;DHT22;10274;49.022;9.338;2023-09-19T03:10:33;17.40;99.90
20231;DHT22;10274;49.022;9.338;2023-09-19T03:13:03;17.40;99.90
20231;DHT22;10274;49.022;9.338;2023-09-19T03:15:30;17.50;99.90
20231;DHT22;10274;49.022;9.338;2023-09-19T03:17:56;17.60;99.90
20231;DHT22;10274;49.022;9.338;2023-09-19T03:20:25;17.70;99.90
20231;DHT22;10274;49.022;9.338;2023-09-19T03:22:53;17.60;99.90
20231;DHT22;10274;49.022;9.338;2023-09-19T03:25:19;17.60;99.90
20231;DHT22;10274;49.022;9.338;2023-09-19T03:27:50;17.50;99.90
20231;DHT22;10274;49.022;9.338;2023-09-19T03:30:17;17.50;99.90
20231;DHT22;10274;49.022;9.338;2023-09-19T03:32:44;17.50;99.90
20231;DHT22;10274;49.022;9.338;2023-09-19T03:35:12;17.60;99.90
20231;DHT22;10274;49.022;9.338;2023-09-19T03:37:40;17.50;99.90
20231;DHT22;10274;49.022;9.338;2023-09-19T03:40:07;17.60;99.90
20231;DHT22;10274;49.022;9.338;2023-09-19T03:42:38;17.50;99.90
20231;DHT22;10274;49.022;9.338;2023-09-19T03:45:07;17.40;99.90
20231;DHT22;10274;49.022;9.338;2023-09-19T03:47:37;17.40;99.90
20231;DHT22;10274;49.022;9.338;2023-09-19T03:50:05;17.40;99.90
20231;DHT22;10274;49.022;9.338;2023-09-19T03:52:32;17.40;99.90
20231;DHT22;10274;49.022;9.338;2023-09-19T03:54:59;17.30;99.90
20231;DHT22;10274;49.022;9.338;2023-09-19T03:57:28;17.30;99.90
20231;DHT22;10274;49.022;9.338;2023-09-19T03:59:54;17.30;99.90
20231;DHT22;10274;49.022;9.338;2023-09-19T04:02:23;17.30;99.90
20231;DHT22;10274;49.022;9.338;2023-09-19T04:04:51;17.40;99.90
20231;DHT22;10274;49.022;9.338;2023-09-19T04:07:18;17.40;99.90
20231;DHT22;10274;49.022;9.338;2023-09-19T04:09:47;17.40;99.90
20231;DHT22;10274;49.022;9.338;2023-09-19T04:12:14;17.30;99.90
20231;DHT22;10274;49.022;9.338;2023-09-19T04:14:42;17.30;99.90
20231;DHT22;10274;49.022;9.338;2023-09-19T04:17:09;17.30;99.90
20231;DHT22;10274;49.022;9.338;2023-09-19T04:19:37;17.20;99.90
20231;DHT22;10274;49.022;9.338;2023-09-19T04:22:04;17.10;99.90
20231;DHT22;10274;49.022;9.338;2023-09-19T04:24:30;17.00;1.00
20231;DHT22;10274;49.022;9.338;2023-09-19T04:26:57;16.80;1.00
20231;DHT22;10274;49.022;9.338;2023-09-19T04:29:25;16.80;99.90
20231;DHT22;10274;49.022;9.338;2023-09-19T04:31:55;16.70;1.00
20231;DHT22;10274;49.022;9.338;2023-09-19T04:34:22;16.50;52.60
20231;DHT22;10274;49.022;9.338;2023-09-19T04:36:51;16.50;1.00
20231;DHT22;10274;49.022;9.338;2023-09-19T04:39:18;16.40;1.00
20231;DHT22;10274;49.022;9.338;2023-09-19T04:41:44;16.40;68.30
20231;DHT22;10274;49.022;9.338;2023-09-19T04:44:13;16.40;99.90
20231;DHT22;10274;49.022;9.338;2023-09-19T04:46:40;16.30;99.90
20231;DHT22;10274;49.022;9.338;2023-09-19T04:49:06;16.30;1.00
20231;DHT22;10274;49.022;9.338;2023-09-19T04:51:33;16.30;1.00
20231;DHT22;10274;49.022;9.338;2023-09-19T04:54:03;16.20;1.00
20231;DHT22;10274;49.022;9.338;2023-09-19T04:56:31;16.30;1.00
20231;DHT22;10274;49.022;9.338;2023-09-19T04:58:58;16.30;1.00
20231;DHT22;10274;49.022;9.338;2023-09-19T05:03:53;16.20;1.00
20231;DHT22;10274;49.022;9.338;2023-09-19T05:06:20;16.30;1.00
20231;DHT22;10274;49.022;9.338;2023-09-19T05:08:47;16.30;99.90
20231;DHT22;10274;49.022;9.338;2023-09-19T05:11:18;16.30;5.80
20231;DHT22;10274;49.022;9.338;2023-09-19T05:13:45;16.40;1.00
20231;DHT22;10274;49.022;9.338;2023-09-19T05:16:12;16.40;1.00
20231;DHT22;10274;49.022;9.338;2023-09-19T05:18:39;16.40;1.00
20231;DHT22;10274;49.022;9.338;2023-09-19T05:21:06;16.40;1.00
20231;DHT22;10274;49.022;9.338;2023-09-19T05:23:33;16.40;1.00
20231;DHT22;10274;49.022;9.338;2023-09-19T05:26:00;16.40;1.00
20231;DHT22;10274;49.022;9.338;2023-09-19T05:28:28;16.40;45.50
20231;DHT22;10274;49.022;9.338;2023-09-19T05:30:55;16.40;11.20
20231;DHT22;10274;49.022;9.338;2023-09-19T05:33:23;16.40;1.00
20231;DHT22;10274;49.022;9.338;2023-09-19T05:35:49;16.50;99.90
20231;DHT22;10274;49.022;9.338;2023-09-19T05:38:16;16.60;1.00
20231;DHT22;10274;49.022;9.338;2023-09-19T05:40:45;16.60;1.00
20231;DHT22;10274;49.022;9.338;2023-09-19T05:43:12;16.60;1.00
20231;DHT22;10274;49.022;9.338;2023-09-19T05:45:41;16.70;75.10
20231;DHT22;10274;49.022;9.338;2023-09-19T05:48:09;16.70;99.90
20231;DHT22;10274;49.022;9.338;2023-09-19T05:50:37;16.70;99.90
20231;DHT22;10274;49.022;9.338;2023-09-19T05:53:04;16.80;99.90
20231;DHT22;10274;49.022;9.338;2023-09-19T05:55:31;16.80;99.90
20231;DHT22;10274;49.022;9.338;2023-09-19T05:57:57;16.80;99.90
20231;DHT22;10274;49.022;9.338;2023-09-19T06:00:24;16.80;1.00
20231;DHT22;10274;49.022;9.338;2023-09-19T06:02:55;16.80;1.00
20231;DHT22;10274;49.022;9.338;2023-09-19T06:05:23;16.80;99.90
20231;DHT22;10274;49.022;9.338;2023-09-19T06:07:50;16.80;1.00
20231;DHT22;10274;49.022;9.338;2023-09-19T06:10:18;16.70;94.70
20231;DHT22;10274;49.022;9.338;2023-09-19T06:12:46;16.70;1.00
20231;DHT22;10274;49.022;9.338;2023-09-19T06:15:14;16.70;1.00
20231;DHT22;10274;49.022;9.338;2023-09-19T06:17:42;16.60;99.90
20231;DHT22;10274;49.022;9.338;2023-09-19T06:20:11;16.60;99.90
20231;DHT22;10274;49.022;9.338;2023-09-19T06:22:40;16.60;99.90
20231;DHT22;10274;49.022;9.338;2023-09-19T06:25:08;16.60;1.00
20231;DHT22;10274;49.022;9.338;2023-09-19T06:27:37;16.60;99.90
20231;DHT22;10274;49.022;9.338;2023-09-19T06:30:05;16.60;99.90
20231;DHT22;10274;49.022;9.338;2023-09-19T06:32:33;16.60;99.90
20231;DHT22;10274;49.022;9.338;2023-09-19T06:35:00;16.70;1.00
20231;DHT22;10274;49.022;9.338;2023-09-19T06:37:28;16.70;97.10
20231;DHT22;10274;49.022;9.338;2023-09-19T06:39:55;16.70;1.00
20231;DHT22;10274;49.022;9.338;2023-09-19T06:42:22;16.80;1.00
20231;DHT22;10274;49.022;9.338;2023-09-19T06:44:49;16.80;99.90
20231;DHT22;10274;49.022;9.338;2023-09-19T06:47:16;17.00;99.90
20231;DHT22;10274;49.022;9.338;2023-09-19T06:49:43;17.00;1.00
20231;DHT22;10274;49.022;9.338;2023-09-19T06:52:10;17.10;1.00
20231;DHT22;10274;49.022;9.338;2023-09-19T06:54:38;17.20;1.00
20231;DHT22;10274;49.022;9.338;2023-09-19T06:57:08;17.20;99.90
20231;DHT22;10274;49.022;9.338;2023-09-19T06:59:35;17.20;99.90
20231;DHT22;10274;49.022;9.338;2023-09-19T07:02:03;17.40;99.90
20231;DHT22;10274;49.022;9.338;2023-09-19T07:04:31;17.40;1.00
20231;DHT22;10274;49.022;9.338;2023-09-19T07:06:58;17.50;1.00
20231;DHT22;10274;49.022;9.338;2023-09-19T07:09:25;17.70;1.00
20231;DHT22;10274;49.022;9.338;2023-09-19T07:11:57;17.70;1.00
20231;DHT22;10274;49.022;9.338;2023-09-19T07:14:41;17.80;1.00
20231;DHT22;10274;49.022;9.338;2023-09-19T07:17:07;17.90;1.00
20231;DHT22;10274;49.022;9.338;2023-09-19T07:19:34;17.90;1.00
20231;DHT22;10274;49.022;9.338;2023-09-19T07:22:01;17.90;99.90
20231;DHT22;10274;49.022;9.338;2023-09-19T07:24:28;17.90;99.90
20231;DHT22;10274;49.022;9.338;2023-09-19T07:26:56;18.00;99.90
20231;DHT22;10274;49.022;9.338;2023-09-19T07:29:24;18.10;99.90
20231;DHT22;10274;49.022;9.338;2023-09-19T07:31:51;18.10;99.90
20231;DHT22;10274;49.022;9.338;2023-09-19T07:34:18;17.90;99.90
20231;DHT22;10274;49.022;9.338;2023-09-19T07:36:46;18.10;64.30
20231;DHT22;10274;49.022;9.338;2023-09-19T07:39:13;17.90;42.40
20231;DHT22;10274;49.022;9.338;2023-09-19T07:41:40;17.80;1.00
20231;DHT22;10274;49.022;9.338;2023-09-19T07:44:08;18.10;1.00
20231;DHT22;10274;49.022;9.338;2023-09-19T07:46:35;18.20;1.00
20231;DHT22;10274;49.022;9.338;2023-09-19T07:49:02;18.40;1.00
20231;DHT22;10274;49.022;9.338;2023-09-19T07:51:30;18.50;1.00
20231;DHT22;10274;49.022;9.338;2023-09-19T07:53:58;18.40;1.00
20231;DHT22;10274;49.022;9.338;2023-09-19T07:56:25;18.30;1.00
20231;DHT22;10274;49.022;9.338;2023-09-19T07:58:53;18.40;1.00
20231;DHT22;10274;49.022;9.338;2023-09-19T08:01:21;18.90;1.00
20231;DHT22;10274;49.022;9.338;2023-09-19T08:03:49;18.90;1.00
20231;DHT22;10274;49.022;9.338;2023-09-19T08:06:16;19.00;1.00
20231;DHT22;10274;49.022;9.338;2023-09-19T08:08:44;19.20;1.00
20231;DHT22;10274;49.022;9.338;2023-09-19T08:11:11;19.30;1.00
20231;DHT22;10274;49.022;9.338;2023-09-19T08:13:38;19.10;99.90
20231;DHT22;10274;49.022;9.338;2023-09-19T08:16:09;19.50;99.90
20231;DHT22;10274;49.022;9.338;2023-09-19T08:18:37;19.60;99.90
20231;DHT22;10274;49.022;9.338;2023-09-19T08:21:05;20.20;99.90
20231;DHT22;10274;49.022;9.338;2023-09-19T08:23:33;20.80;99.90
20231;DHT22;10274;49.022;9.338;2023-09-19T08:26:00;21.40;99.90
20231;DHT22;10274;49.022;9.338;2023-09-19T08:28:32;21.50;37.60
20231;DHT22;10274;49.022;9.338;2023-09-19T08:31:02;21.50;29.20
20231;DHT22;10274;49.022;9.338;2023-09-19T08:33:31;22.10;1.00
20231;DHT22;10274;49.022;9.338;2023-09-19T08:35:59;21.70;1.00
20231;DHT22;10274;49.022;9.338;2023-09-19T08:38:26;21.40;1.00
20231;DHT22;10274;49.022;9.338;2023-09-19T08:40:57;22.10;1.00
20231;DHT22;10274;49.022;9.338;2023-09-19T08:45:51;23.20;1.00
20231;DHT22;10274;49.022;9.338;2023-09-19T08:48:24;23.10;1.00
20231;DHT22;10274;49.022;9.338;2023-09-19T08:50:56;23.80;1.00
20231;DHT22;10274;49.022;9.338;2023-09-19T08:53:33;23.50;1.00
20231;DHT22;10274;49.022;9.338;2023-09-19T08:56:03;23.20;1.00
20231;DHT22;10274;49.022;9.338;2023-09-19T08:58:44;22.60;1.00
20231;DHT22;10274;49.022;9.338;2023-09-19T09:01:14;23.40;1.00
20231;DHT22;10274;49.022;9.338;2023-09-19T09:03:42;22.70;1.00
20231;DHT22;10274;49.022;9.338;2023-09-19T09:06:13;22.40;1.00
20231;DHT22;10274;49.022;9.338;2023-09-19T09:08:43;22.30;1.00
20231;DHT22;10274;49.022;9.338;2023-09-19T09:11:11;21.70;1.00
20231;DHT22;10274;49.022;9.338;2023-09-19T09:13:38;20.40;1.00
20231;DHT22;10274;49.022;9.338;2023-09-19T09:16:07;20.00;1.00
20231;DHT22;10274;49.022;9.338;2023-09-19T09:18:35;20.00;1.00
20231;DHT22;10274;49.022;9.338;2023-09-19T09:21:02;19.80;1.00
20231;DHT22;10274;49.022;9.338;2023-09-19T09:23:30;19.60;1.00
20231;DHT22;10274;49.022;9.338;2023-09-19T09:25:59;19.90;1.00
20231;DHT22;10274;49.022;9.338;2023-09-19T09:28:30;19.90;1.00
20231;DHT22;10274;49.022;9.338;2023-09-19T09:30:58;19.70;1.00
20231;DHT22;10274;49.022;9.338;2023-09-19T09:33:26;19.40;1.00
20231;DHT22;10274;49.022;9.338;2023-09-19T09:35:55;19.40;1.00
20231;DHT22;10274;49.022;9.338;2023-09-19T09:38:27;19.20;1.00
20231;DHT22;10274;49.022;9.338;2023-09-19T09:40:54;19.10;1.00
20231;DHT22;10274;49.022;9.338;2023-09-19T09:43:29;19.00;1.00
20231;DHT22;10274;49.022;9.338;2023-09-19T09:46:08;19.00;1.00
20231;DHT22;10274;49.022;9.338;2023-09-19T09:48:36;19.00;1.00
20231;DHT22;10274;49.022;9.338;2023-09-19T09:51:04;19.20;1.00
20231;DHT22;10274;49.022;9.338;2023-09-19T09:53:33;19.20;1.00
20231;DHT22;10274;49.022;9.338;2023-09-19T09:56:01;19.10;1.00
20231;DHT22;10274;49.022;9.338;2023-09-19T09:58:32;19.20;1.00
20231;DHT22;10274;49.022;9.338;2023-09-19T10:01:01;19.30;1.00
20231;DHT22;10274;49.022;9.338;2023-09-19T10:03:33;19.50;1.00
20231;DHT22;10274;49.022;9.338;2023-09-19T10:06:04;19.20;1.00
20231;DHT22;10274;49.022;9.338;2023-09-19T10:08:58;20.00;1.00
20231;DHT22;10274;49.022;9.338;2023-09-19T10:11:31;21.20;1.00
20231;DHT22;10274;49.022;9.338;2023-09-19T10:14:00;21.20;1.00
20231;DHT22;10274;49.022;9.338;2023-09-19T10:16:32;21.70;1.00
20231;DHT22;10274;49.022;9.338;2023-09-19T10:19:02;21.80;1.00
20231;DHT22;10274;49.022;9.338;2023-09-19T10:21:32;22.10;1.00
20231;DHT22;10274;49.022;9.338;2023-09-19T10:23:59;22.30;1.00
20231;DHT22;10274;49.022;9.338;2023-09-19T10:26:30;22.50;1.00
20231;DHT22;10274;49.022;9.338;2023-09-19T10:28:59;21.90;1.00
20231;DHT22;10274;49.022;9.338;2023-09-19T10:31:28;21.70;1.00
20231;DHT22;10274;49.022;9.338;2023-09-19T10:33:55;21.40;1.00
20231;DHT22;10274;49.022;9.338;2023-09-19T10:36:24;21.00;1.00
20231;DHT22;10274;49.022;9.338;2023-09-19T10:38:54;21.50;1.00
20231;DHT22;10274;49.022;9.338;2023-09-19T10:41:24;20.90;1.00
20231;DHT22;10274;49.022;9.338;2023-09-19T10:43:51;21.00;1.00
20231;DHT22;10274;49.022;9.338;2023-09-19T10:46:21;21.10;1.00
20231;DHT22;10274;49.022;9.338;2023-09-19T10:48:48;21.10;1.00
20231;DHT22;10274;49.022;9.338;2023-09-19T10:51:22;21.20;1.00
20231;DHT22;10274;49.022;9.338;2023-09-19T10:53:52;22.00;1.00
20231;DHT22;10274;49.022;9.338;2023-09-19T10:56:26;21.90;1.00
20231;DHT22;10274;49.022;9.338;2023-09-19T10:59:06;21.30;1.00
20231;DHT22;10274;49.022;9.338;2023-09-19T11:01:44;21.50;1.00
20231;DHT22;10274;49.022;9.338;2023-09-19T11:04:24;21.90;1.00
20231;DHT22;10274;49.022;9.338;2023-09-19T11:07:02;21.60;1.00
20231;DHT22;10274;49.022;9.338;2023-09-19T11:09:49;21.30;1.00
20231;DHT22;10274;49.022;9.338;2023-09-19T11:12:49;21.10;1.00
20231;DHT22;10274;49.022;9.338;2023-09-19T11:18:53;20.40;1.00
20231;DHT22;10274;49.022;9.338;2023-09-19T11:21:52;20.40;1.00
20231;DHT22;10274;49.022;9.338;2023-09-19T11:24:31;20.60;1.00
20231;DHT22;10274;49.022;9.338;2023-09-19T11:27:15;21.10;1.00
20231;DHT22;10274;49.022;9.338;2023-09-19T11:29:43;21.80;1.00
20231;DHT22;10274;49.022;9.338;2023-09-19T11:32:10;22.30;1.00
20231;DHT22;10274;49.022;9.338;2023-09-19T11:34:46;22.50;1.00
20231;DHT22;10274;49.022;9.338;2023-09-19T11:40:45;21.10;1.00
20231;DHT22;10274;49.022;9.338;2023-09-19T11:43:38;20.90;1.00
20231;DHT22;10274;49.022;9.338;2023-09-19T11:46:06;20.60;1.00
20231;DHT22;10274;49.022;9.338;2023-09-19T11:48:35;20.70;1.00
20231;DHT22;10274;49.022;9.338;2023-09-19T11:51:22;20.80;1.00
20231;DHT22;10274;49.022;9.338;2023-09-19T11:53:53;21.60;1.00
20231;DHT22;10274;49.022;9.338;2023-09-19T11:56:21;21.80;1.00
20231;DHT22;10274;49.022;9.338;2023-09-19T11:58:50;21.90;1.00
20231;DHT22;10274;49.022;9.338;2023-09-19T12:01:22;22.20;1.00
20231;DHT22;10274;49.022;9.338;2023-09-19T12:03:53;22.00;1.00
20231;DHT22;10274;49.022;9.338;2023-09-19T12:06:20;22.10;1.00
20231;DHT22;10274;49.022;9.338;2023-09-19T12:08:49;22.20;1.00
20231;DHT22;10274;49.022;9.338;2023-09-19T12:11:20;22.30;1.00
20231;DHT22;10274;49.022;9.338;2023-09-19T12:13:49;22.30;1.00
20231;DHT22;10274;49.022;9.338;2023-09-19T12:16:19;22.50;1.00
20231;DHT22;10274;49.022;9.338;2023-09-19T12:18:48;22.30;1.00
20231;DHT22;10274;49.022;9.338;2023-09-19T12:21:27;22.40;1.00
20231;DHT22;10274;49.022;9.338;2023-09-19T12:24:14;22.10;1.00
20231;DHT22;10274;49.022;9.338;2023-09-19T12:26:46;22.10;1.00
20231;DHT22;10274;49.022;9.338;2023-09-19T12:29:17;22.00;1.00
20231;DHT22;10274;49.022;9.338;2023-09-19T12:31:51;21.70;1.00
20231;DHT22;10274;49.022;9.338;2023-09-19T12:34:22;22.10;1.00
20231;DHT22;10274;49.022;9.338;2023-09-19T12:37:04;22.30;1.00
20231;DHT22;10274;49.022;9.338;2023-09-19T12:39:38;22.50;1.00
20231;DHT22;10274;49.022;9.338;2023-09-19T12:42:07;22.40;1.00
20231;DHT22;10274;49.022;9.338;2023-09-19T12:44:36;23.00;1.00
20231;DHT22;10274;49.022;9.338;2023-09-19T12:47:09;23.10;1.00
20231;DHT22;10274;49.022;9.338;2023-09-19T12:50:04;22.70;1.00
20231;DHT22;10274;49.022;9.338;2023-09-19T12:52:23;22.70;1.00
20231;DHT22;10274;49.022;9.338;2023-09-19T12:54:52;22.00;1.00
20231;DHT22;10274;49.022;9.338;2023-09-19T12:57:28;22.20;1.00
20231;DHT22;10274;49.022;9.338;2023-09-19T12:59:57;22.80;1.00
20231;DHT22;10274;49.022;9.338;2023-09-19T13:02:24;23.40;1.00
20231;DHT22;10274;49.022;9.338;2023-09-19T13:04:54;23.00;1.00
20231;DHT22;10274;49.022;9.338;2023-09-19T13:07:41;22.50;1.00
20231;DHT22;10274;49.022;9.338;2023-09-19T13:10:14;22.20;1.00
20231;DHT22;10274;49.022;9.338;2023-09-19T13:12:43;22.20;1.00
20231;DHT22;10274;49.022;9.338;2023-09-19T13:15:14;22.20;1.00
20231;DHT22;10274;49.022;9.338;2023-09-19T13:17:44;22.80;1.00
20231;DHT22;10274;49.022;9.338;2023-09-19T13:20:21;23.20;1.00
20231;DHT22;10274;49.022;9.338;2023-09-19T13:22:50;23.30;1.00
20231;DHT22;10274;49.022;9.338;2023-09-19T13:25:22;23.40;1.00
20231;DHT22;10274;49.022;9.338;2023-09-19T13:27:50;24.00;1.00
20231;DHT22;10274;49.022;9.338;2023-09-19T13:30:19;24.40;1.00
20231;DHT22;10274;49.022;9.338;2023-09-19T13:32:47;24.30;1.00
20231;DHT22;10274;49.022;9.338;2023-09-19T13:35:14;24.40;1.00
20231;DHT22;10274;49.022;9.338;2023-09-19T13:37:42;24.00;1.00
20231;DHT22;10274;49.022;9.338;2023-09-19T13:40:12;24.40;1.00
20231;DHT22;10274;49.022;9.338;2023-09-19T13:42:41;24.30;1.00
20231;DHT22;10274;49.022;9.338;2023-09-19T13:45:08;24.90;1.00
20231;DHT22;10274;49.022;9.338;2023-09-19T13:47:37;25.40;1.00
20231;DHT22;10274;49.022;9.338;2023-09-19T13:50:05;24.60;1.00
20231;DHT22;10274;49.022;9.338;2023-09-19T13:52:33;24.40;1.00
20231;DHT22;10274;49.022;9.338;2023-09-19T13:55:00;24.70;1.00
20231;DHT22;10274;49.022;9.338;2023-09-19T13:57:26;24.80;1.00
20231;DHT22;10274;49.022;9.338;2023-09-19T13:59:56;24.90;1.00
20231;DHT22;10274;49.022;9.338;2023-09-19T14:02:22;25.40;1.00
20231;DHT22;10274;49.022;9.338;2023-09-19T14:04:50;25.00;1.00
20231;DHT22;10274;49.022;9.338;2023-09-19T14:07:17;25.00;1.00
20231;DHT22;10274;49.022;9.338;2023-09-19T14:09:45;25.00;1.00
20231;DHT22;10274;49.022;9.338;2023-09-19T14:12:13;24.90;1.00
20231;DHT22;10274;49.022;9.338;2023-09-19T14:14:40;25.40;1.00
20231;DHT22;10274;49.022;9.338;2023-09-19T14:17:09;25.40;1.00
20231;DHT22;10274;49.022;9.338;2023-09-19T14:19:35;24.90;1.00
20231;DHT22;10274;49.022;9.338;2023-09-19T14:22:03;24.50;1.00
20231;DHT22;10274;49.022;9.338;2023-09-19T14:24:33;24.60;1.00
20231;DHT22;10274;49.022;9.338;2023-09-19T14:27:00;24.50;1.00
20231;DHT22;10274;49.022;9.338;2023-09-19T14:29:29;24.80;1.00
20231;DHT22;10274;49.022;9.338;2023-09-19T14:31:56;24.40;1.00
20231;DHT22;10274;49.022;9.338;2023-09-19T14:34:24;24.70;1.00
20231;DHT22;10274;49.022;9.338;2023-09-19T14:36:51;24.30;1.00
20231;DHT22;10274;49.022;9.338;2023-09-19T14:39:19;24.30;1.00
20231;DHT22;10274;49.022;9.338;2023-09-19T14:41:46;24.20;1.00
20231;DHT22;10274;49.022;9.338;2023-09-19T14:44:13;24.20;1.00
20231;DHT22;10274;49.022;9.338;2023-09-19T14:46:41;24.00;1.00
20231;DHT22;10274;49.022;9.338;2023-09-19T14:49:09;24.00;1.00
20231;DHT22;10274;49.022;9.338;2023-09-19T14:51:37;23.80;1.00
20231;DHT22;10274;49.022;9.338;2023-09-19T14:54:05;23.50;1.00
20231;DHT22;10274;49.022;9.338;2023-09-19T14:56:33;23.20;1.00
20231;DHT22;10274;49.022;9.338;2023-09-19T14:59:00;23.40;1.00
20231;DHT22;10274;49.022;9.338;2023-09-19T15:01:27;23.60;1.00
20231;DHT22;10274;49.022;9.338;2023-09-19T15:03:54;23.30;1.00
20231;DHT22;10274;49.022;9.338;2023-09-19T15:06:21;23.40;1.00
20231;DHT22;10274;49.022;9.338;2023-09-19T15:08:49;23.20;1.00
20231;DHT22;10274;49.022;9.338;2023-09-19T15:11:16;23.10;1.00
20231;DHT22;10274;49.022;9.338;2023-09-19T15:13:44;23.30;1.00
20231;DHT22;10274;49.022;9.338;2023-09-19T15:16:11;23.50;1.00
20231;DHT22;10274;49.022;9.338;2023-09-19T15:18:39;23.40;1.00
20231;DHT22;10274;49.022;9.338;2023-09-19T15:21:08;23.20;1.00
20231;DHT22;10274;49.022;9.338;2023-09-19T15:23:36;23.30;1.00
20231;DHT22;10274;49.022;9.338;2023-09-19T15:26:05;23.10;1.00
20231;DHT22;10274;49.022;9.338;2023-09-19T15:28:32;22.90;1.00
20231;DHT22;10274;49.022;9.338;2023-09-19T15:31:00;22.80;1.00
20231;DHT22;10274;49.022;9.338;2023-09-19T15:33:27;22.80;1.00
20231;DHT22;10274;49.022;9.338;2023-09-19T15:36:01;22.90;1.00
20231;DHT22;10274;49.022;9.338;2023-09-19T15:38:29;22.90;1.00
20231;DHT22;10274;49.022;9.338;2023-09-19T15:40:57;22.90;1.00
20231;DHT22;10274;49.022;9.338;2023-09-19T15:43:25;22.80;1.00
20231;DHT22;10274;49.022;9.338;2023-09-19T15:45:52;22.80;1.00
20231;DHT22;10274;49.022;9.338;2023-09-19T15:48:19;22.80;1.00
20231;DHT22;10274;49.022;9.338;2023-09-19T15:50:47;22.80;1.00
20231;DHT22;10274;49.022;9.338;2023-09-19T15:53:13;22.60;1.00
20231;DHT22;10274;49.022;9.338;2023-09-19T15:55:40;22.40;1.00
20231;DHT22;10274;49.022;9.338;2023-09-19T15:58:09;22.30;1.00
20231;DHT22;10274;49.022;9.338;2023-09-19T16:00:39;22.20;1.00
20231;DHT22;10274;49.022;9.338;2023-09-19T16:03:06;22.20;1.00
20231;DHT22;10274;49.022;9.338;2023-09-19T16:05:35;22.10;1.00
20231;DHT22;10274;49.022;9.338;2023-09-19T16:08:03;22.00;1.00
20231;DHT22;10274;49.022;9.338;2023-09-19T16:10:34;21.90;1.00